createdAt,value
2018-11-28T00:00:37.481Z,79.10
2018-11-28T00:03:08.631Z,80.29
2018-11-28T00:05:37.182Z,80.50
2018-11-28T00:08:05.652Z,79.92
2018-11-28T00:10:34.147Z,80.07
2018-11-28T00:13:02.604Z,80.36
2018-11-28T00:15:31.135Z,80.24
2018-11-28T00:17:59.619Z,80.50
2018-11-28T00:20:28.096Z,80.41
2018-11-28T00:22:56.549Z,80.16
2018-11-28T00:25:25.043Z,80.14
2018-11-28T00:27:53.509Z,80.39
2018-11-28T00:30:23.197Z,80.80
2018-11-28T00:32:51.775Z,80.74
2018-11-28T00:35:21.347Z,81.15
2018-11-28T00:37:49.815Z,81.25
2018-11-28T00:40:19.485Z,81.56
2018-11-28T00:42:48.005Z,81.77
2018-11-28T00:45:18.996Z,81.77
2018-11-28T00:47:47.543Z,81.70
2018-11-28T00:50:17.948Z,81.71
2018-11-28T00:52:46.516Z,81.59
2018-11-28T00:55:15.859Z,81.87
2018-11-28T00:57:44.503Z,82.02
2018-11-28T01:00:16.128Z,82.52
2018-11-28T01:02:44.577Z,82.82
2018-11-28T01:05:13.671Z,82.66
2018-11-28T01:07:42.634Z,82.53
2018-11-28T01:10:13.355Z,83.01
2018-11-28T01:12:41.826Z,82.86
2018-11-28T01:15:11.550Z,82.44
2018-11-28T01:17:40.063Z,82.77
2018-11-28T01:20:12.109Z,83.02
2018-11-28T01:22:40.631Z,83.25
2018-11-28T01:25:11.319Z,82.86
2018-11-28T01:27:39.859Z,83.38
2018-11-28T01:30:13.441Z,83.54
2018-11-28T01:32:41.896Z,83.44
2018-11-28T01:35:11.309Z,83.24
2018-11-28T01:37:40.036Z,83.29
2018-11-28T01:40:11.112Z,83.92
2018-11-28T01:42:39.653Z,83.74
2018-11-28T01:45:09.309Z,83.93
2018-11-28T01:47:37.819Z,83.95
2018-11-28T01:50:08.429Z,83.85
2018-11-28T01:52:36.907Z,83.81
2018-11-28T01:55:07.056Z,83.93
2018-11-28T01:57:35.542Z,83.62
2018-11-28T02:00:04.532Z,83.71
2018-11-28T02:02:33.032Z,83.86
2018-11-28T02:05:01.479Z,83.71
2018-11-28T02:07:29.946Z,83.75
2018-11-28T02:09:58.371Z,83.39
2018-11-28T02:12:26.823Z,83.52
2018-11-28T02:14:55.309Z,83.00
2018-11-28T02:17:23.803Z,82.99
2018-11-28T02:19:52.254Z,82.99
2018-11-28T02:22:20.768Z,82.87
2018-11-28T02:24:49.233Z,83.05
2018-11-28T02:27:17.740Z,83.25
2018-11-28T02:29:46.192Z,83.12
2018-11-28T02:32:14.705Z,82.91
2018-11-28T02:34:43.165Z,82.80
2018-11-28T02:37:11.675Z,83.06
2018-11-28T02:39:40.122Z,82.75
2018-11-28T02:42:08.581Z,82.93
2018-11-28T02:44:37.097Z,83.11
2018-11-28T02:47:05.706Z,83.03
2018-11-28T02:49:34.160Z,83.01
2018-11-28T02:52:17.908Z,82.77
2018-11-28T02:54:46.338Z,82.84
2018-11-28T02:57:14.794Z,82.79
2018-11-28T02:59:43.229Z,82.93
2018-11-28T03:02:11.687Z,82.48
2018-11-28T03:04:40.209Z,83.08
2018-11-28T03:07:08.663Z,82.98
2018-11-28T03:09:37.097Z,83.28
2018-11-28T03:12:05.592Z,83.04
2018-11-28T03:14:34.237Z,83.24
2018-11-28T03:17:02.744Z,83.00
2018-11-28T03:19:31.204Z,83.12
2018-11-28T03:21:59.695Z,82.97
2018-11-28T03:24:28.132Z,83.03
2018-11-28T03:26:56.600Z,83.29
2018-11-28T03:29:25.036Z,83.42
2018-11-28T03:31:53.505Z,83.41
2018-11-28T03:34:21.899Z,83.41
2018-11-28T03:36:50.322Z,83.79
2018-11-28T03:39:18.776Z,83.80
2018-11-28T03:41:47.207Z,83.51
2018-11-28T03:44:15.737Z,83.12
2018-11-28T03:46:44.172Z,83.14
2018-11-28T03:49:12.689Z,83.43
2018-11-28T03:51:41.158Z,83.63
2018-11-28T03:54:09.660Z,83.98
2018-11-28T03:56:38.097Z,83.94
2018-11-28T03:59:06.728Z,83.35
2018-11-28T04:01:35.153Z,83.29
2018-11-28T04:04:03.706Z,83.17
2018-11-28T04:06:32.153Z,83.08
2018-11-28T04:09:00.647Z,83.05
2018-11-28T04:11:29.111Z,82.99
2018-11-28T04:13:57.624Z,82.82
2018-11-28T04:16:26.082Z,82.88
2018-11-28T04:18:54.588Z,82.68
2018-11-28T04:21:23.028Z,82.55
2018-11-28T04:23:51.539Z,82.59
2018-11-28T04:26:19.963Z,82.50
2018-11-28T04:28:48.420Z,82.53
2018-11-28T04:31:16.975Z,82.43
2018-11-28T04:33:45.432Z,82.38
2018-11-28T04:36:13.933Z,82.87
2018-11-28T04:38:42.388Z,82.69
2018-11-28T04:41:10.910Z,83.12
2018-11-28T04:43:39.408Z,83.19
2018-11-28T04:46:07.850Z,83.39
2018-11-28T04:48:36.363Z,83.54
2018-11-28T04:51:04.824Z,83.40
2018-11-28T04:53:33.332Z,83.57
2018-11-28T04:56:01.787Z,83.61
2018-11-28T04:58:30.235Z,83.18
2018-11-28T05:00:58.764Z,83.32
2018-11-28T05:03:27.262Z,83.23
2018-11-28T05:05:55.729Z,83.70
2018-11-28T05:08:24.229Z,83.63
2018-11-28T05:10:52.747Z,83.84
2018-11-28T05:13:21.216Z,83.80
2018-11-28T05:15:49.651Z,83.53
2018-11-28T05:18:18.032Z,83.69
2018-11-28T05:20:46.532Z,83.86
2018-11-28T05:23:14.967Z,84.29
2018-11-28T05:25:43.500Z,84.25
2018-11-28T05:28:11.963Z,84.06
2018-11-28T05:30:40.595Z,84.17
2018-11-28T05:33:09.033Z,84.28
2018-11-28T05:35:38.754Z,83.80
2018-11-28T05:38:08.851Z,84.16
2018-11-28T05:40:37.364Z,83.71
2018-11-28T05:43:06.235Z,83.38
2018-11-28T05:45:34.740Z,83.28
2018-11-28T05:48:03.185Z,82.79
2018-11-28T05:50:31.691Z,82.69
2018-11-28T05:53:00.165Z,82.76
2018-11-28T05:55:28.664Z,82.57
2018-11-28T05:57:57.103Z,82.57
2018-11-28T06:00:31.300Z,82.71
2018-11-28T06:02:59.828Z,82.47
2018-11-28T06:05:28.228Z,82.41
2018-11-28T06:07:56.596Z,82.26
2018-11-28T06:10:24.987Z,82.86
2018-11-28T06:12:53.453Z,82.76
2018-11-28T06:15:21.847Z,82.95
2018-11-28T06:17:50.257Z,82.92
2018-11-28T06:20:18.622Z,82.69
2018-11-28T06:22:47.010Z,83.04
2018-11-28T06:25:16.873Z,82.91
2018-11-28T06:27:44.926Z,83.14
2018-11-28T06:30:14.427Z,82.78
2018-11-28T06:32:42.965Z,82.75
2018-11-28T06:35:11.747Z,82.96
2018-11-28T06:37:40.332Z,82.92
2018-11-28T06:40:12.841Z,82.74
2018-11-28T06:42:41.323Z,81.89
2018-11-28T06:45:12.097Z,82.79
2018-11-28T06:47:40.715Z,82.50
2018-11-28T06:50:11.751Z,82.22
2018-11-28T06:52:40.207Z,82.01
2018-11-28T06:55:10.561Z,82.02
2018-11-28T06:57:39.058Z,82.04
2018-11-28T07:00:13.305Z,81.88
2018-11-28T07:02:42.051Z,81.87
2018-11-28T07:05:11.024Z,81.68
2018-11-28T07:07:39.528Z,81.41
2018-11-28T07:10:09.943Z,81.56
2018-11-28T07:12:38.395Z,81.27
2018-11-28T07:15:09.140Z,81.21
2018-11-28T07:17:37.659Z,81.67
2018-11-28T07:20:07.231Z,81.35
2018-11-28T07:22:35.744Z,81.39
2018-11-28T07:25:04.703Z,81.38
2018-11-28T07:27:33.207Z,81.43
2018-11-28T07:30:01.804Z,81.48
2018-11-28T07:32:30.239Z,81.46
2018-11-28T07:34:58.695Z,81.19
2018-11-28T07:37:27.245Z,81.61
2018-11-28T07:39:55.756Z,80.95
2018-11-28T07:42:24.198Z,80.71
2018-11-28T07:44:52.695Z,80.92
2018-11-28T07:47:21.167Z,80.78
2018-11-28T07:49:49.654Z,80.68
2018-11-28T07:52:18.115Z,80.54
2018-11-28T07:54:46.619Z,80.37
2018-11-28T07:57:15.132Z,80.46
2018-11-28T07:59:43.696Z,80.46
2018-11-28T08:02:12.161Z,80.57
2018-11-28T08:04:40.579Z,80.34
2018-11-28T08:07:09.124Z,80.10
2018-11-28T08:09:37.526Z,80.40
2018-11-28T08:12:06.463Z,81.19
2018-11-28T08:14:34.895Z,81.01
2018-11-28T08:17:03.260Z,81.33
2018-11-28T08:19:31.637Z,80.42
2018-11-28T08:22:00.003Z,80.47
2018-11-28T08:24:28.435Z,80.51
2018-11-28T08:26:56.878Z,80.24
2018-11-28T08:29:25.280Z,80.88
2018-11-28T08:31:53.719Z,80.68
2018-11-28T08:34:23.570Z,80.56
2018-11-28T08:36:50.744Z,80.85
2018-11-28T08:39:19.199Z,80.62
2018-11-28T08:41:47.659Z,81.61
2018-11-28T08:44:16.079Z,82.08
2018-11-28T08:46:44.518Z,82.10
2018-11-28T08:49:12.907Z,82.01
2018-11-28T08:51:41.312Z,82.57
2018-11-28T08:54:09.772Z,82.23
2018-11-28T08:56:38.163Z,82.29
2018-11-28T08:59:06.761Z,82.94
2018-11-28T09:01:35.241Z,83.32
2018-11-28T09:04:03.713Z,83.32
2018-11-28T09:06:32.100Z,83.22
2018-11-28T09:09:00.567Z,83.12
2018-11-28T09:11:28.951Z,82.93
2018-11-28T09:13:57.311Z,82.18
2018-11-28T09:16:25.741Z,81.82
2018-11-28T09:18:54.226Z,81.16
2018-11-28T09:21:22.615Z,81.38
2018-11-28T09:23:51.048Z,80.70
2018-11-28T09:26:19.539Z,80.44
2018-11-28T09:28:48.393Z,80.46
2018-11-28T09:31:17.043Z,79.78
2018-11-28T09:33:45.403Z,79.51
2018-11-28T09:36:13.888Z,79.35
2018-11-28T09:38:42.248Z,78.45
2018-11-28T09:41:10.636Z,78.31
2018-11-28T09:43:38.995Z,78.73
2018-11-28T09:46:07.528Z,77.84
2018-11-28T09:48:35.968Z,78.11
2018-11-28T09:51:04.328Z,78.09
2018-11-28T09:53:32.745Z,77.81
2018-11-28T09:56:01.116Z,77.49
2018-11-28T09:58:29.527Z,77.34
2018-11-28T10:00:57.972Z,77.38
2018-11-28T10:03:26.358Z,76.74
2018-11-28T10:05:54.729Z,76.93
2018-11-28T10:08:23.114Z,76.90
2018-11-28T10:10:51.671Z,76.68
2018-11-28T10:13:20.087Z,76.53
2018-11-28T10:15:48.443Z,76.50
2018-11-28T10:18:16.852Z,76.37
2018-11-28T10:20:45.220Z,75.97
2018-11-28T10:23:13.617Z,75.81
2018-11-28T10:25:41.967Z,75.01
2018-11-28T10:28:10.414Z,74.17
2018-11-28T10:30:39.447Z,74.15
2018-11-28T10:33:12.140Z,73.85
2018-11-28T10:35:41.241Z,73.71
2018-11-28T10:38:09.852Z,73.04
2018-11-28T10:40:38.487Z,72.99
2018-11-28T10:43:08.083Z,72.78
2018-11-28T10:45:37.145Z,72.22
2018-11-28T10:48:06.500Z,72.53
2018-11-28T10:50:36.440Z,73.04
2018-11-28T10:53:04.812Z,72.67
2018-11-28T10:55:33.304Z,71.71
2018-11-28T10:58:01.764Z,70.78
2018-11-28T11:01:34.947Z,70.94
2018-11-28T11:04:08.696Z,70.54
2018-11-28T11:07:43.304Z,71.33
2018-11-28T11:10:16.942Z,71.44
2018-11-28T11:12:50.739Z,71.20
2018-11-28T11:15:19.223Z,70.92
2018-11-28T11:17:47.583Z,71.30
2018-11-28T11:20:15.946Z,70.97
2018-11-28T11:22:44.372Z,70.94
2018-11-28T11:25:12.808Z,70.94
2018-11-28T11:27:41.182Z,70.29
2018-11-28T11:30:10.822Z,69.45
2018-11-28T11:32:39.207Z,68.53
2018-11-28T11:35:09.078Z,68.19
2018-11-28T11:37:37.695Z,67.24
2018-11-28T11:40:11.715Z,66.55
2018-11-28T11:42:40.183Z,65.79
2018-11-28T11:45:14.492Z,64.74
2018-11-28T11:47:43.196Z,65.80
2018-11-28T11:50:14.723Z,65.36
2018-11-28T11:52:43.239Z,66.06
2018-11-28T11:55:17.740Z,65.86
2018-11-28T11:57:46.443Z,65.49
2018-11-28T12:00:17.245Z,65.11
2018-11-28T12:02:49.760Z,65.15
2018-11-28T12:05:18.211Z,64.45
2018-11-28T12:07:46.598Z,63.94
2018-11-28T12:10:15.155Z,63.61
2018-11-28T12:12:43.540Z,62.71
2018-11-28T12:15:15.022Z,61.65
2018-11-28T12:17:46.594Z,61.71
2018-11-28T12:20:21.100Z,61.64
2018-11-28T12:22:49.477Z,61.89
2018-11-28T12:25:17.853Z,60.98
2018-11-28T12:27:46.233Z,61.49
2018-11-28T12:30:15.358Z,60.79
2018-11-28T12:32:44.460Z,61.55
2018-11-28T12:35:18.023Z,61.23
2018-11-28T12:37:46.479Z,60.76
2018-11-28T12:40:15.704Z,60.96
2018-11-28T12:42:45.656Z,61.05
2018-11-28T12:45:16.874Z,60.61
2018-11-28T12:47:46.190Z,60.81
2018-11-28T12:50:24.844Z,60.36
2018-11-28T12:52:54.215Z,59.41
2018-11-28T12:55:23.090Z,59.92
2018-11-28T12:57:52.534Z,60.26
2018-11-28T13:00:23.928Z,59.55
2018-11-28T13:02:52.303Z,59.19
2018-11-28T13:05:21.779Z,59.23
2018-11-28T13:07:50.156Z,59.58
2018-11-28T13:10:19.848Z,59.80
2018-11-28T13:12:49.007Z,58.90
2018-11-28T13:15:18.462Z,58.99
2018-11-28T13:17:46.923Z,58.77
2018-11-28T13:20:16.360Z,59.02
2018-11-28T13:22:45.387Z,58.90
2018-11-28T13:25:15.026Z,59.10
2018-11-28T13:27:43.715Z,58.67
2018-11-28T13:30:17.108Z,59.28
2018-11-28T13:32:45.891Z,59.51
2018-11-28T13:35:15.331Z,59.73
2018-11-28T13:37:44.903Z,59.69
2018-11-28T13:40:14.344Z,59.79
2018-11-28T13:42:42.993Z,59.91
2018-11-28T13:45:21.064Z,59.77
2018-11-28T13:47:52.344Z,60.18
2018-11-28T13:50:20.752Z,60.04
2018-11-28T13:52:49.543Z,60.49
2018-11-28T13:55:41.948Z,60.29
2018-11-28T13:57:53.952Z,60.06
2018-11-28T14:00:22.447Z,60.02
2018-11-28T14:02:50.811Z,59.50
2018-11-28T14:05:19.215Z,60.21
2018-11-28T14:07:47.716Z,59.94
2018-11-28T14:10:16.280Z,59.81
2018-11-28T14:12:44.680Z,60.42
2018-11-28T14:15:17.032Z,60.51
2018-11-28T14:17:47.874Z,61.17
2018-11-28T14:20:16.329Z,61.08
2018-11-28T14:22:44.732Z,61.45
2018-11-28T14:25:13.995Z,61.58
2018-11-28T14:27:42.724Z,61.59
2018-11-28T14:30:18.275Z,61.93
2018-11-28T14:32:47.052Z,62.38
2018-11-28T14:35:15.703Z,61.96
2018-11-28T14:37:44.212Z,62.53
2018-11-28T14:40:20.511Z,62.83
2018-11-28T14:42:52.247Z,63.02
2018-11-28T14:45:20.816Z,62.97
2018-11-28T14:47:50.053Z,63.38
2018-11-28T14:50:21.488Z,63.68
2018-11-28T14:52:50.075Z,63.63
2018-11-28T14:55:20.582Z,64.00
2018-11-28T14:57:49.001Z,64.31
2018-11-28T15:00:19.476Z,64.33
2018-11-28T15:02:50.134Z,64.76
2018-11-28T15:07:01.059Z,64.66
2018-11-28T15:09:36.248Z,64.73
2018-11-28T15:12:11.634Z,65.39
2018-11-28T15:14:35.936Z,65.48
2018-11-28T15:17:04.315Z,65.32
2018-11-28T15:19:32.692Z,65.51
2018-11-28T15:22:01.099Z,65.56
2018-11-28T15:24:29.627Z,65.58
2018-11-28T15:26:57.995Z,65.82
2018-11-28T15:29:26.403Z,65.88
2018-11-28T15:31:54.856Z,66.44
2018-11-28T15:34:23.342Z,66.48
2018-11-28T15:36:51.714Z,65.98
2018-11-28T15:39:20.091Z,66.44
2018-11-28T15:41:48.452Z,66.15
2018-11-28T15:44:16.866Z,66.39
2018-11-28T15:46:45.259Z,68.14
2018-11-28T15:49:13.734Z,71.35
2018-11-28T15:51:42.171Z,67.39
2018-11-28T15:54:10.551Z,66.44
2018-11-28T15:56:38.944Z,66.24
2018-11-28T15:59:07.746Z,66.15
2018-11-28T16:01:36.123Z,66.13
2018-11-28T16:04:04.617Z,66.04
2018-11-28T16:06:33.068Z,66.28
2018-11-28T16:09:01.471Z,66.38
2018-11-28T16:11:29.826Z,66.80
2018-11-28T16:13:58.251Z,66.78
2018-11-28T16:16:26.616Z,66.91
2018-11-28T16:18:57.831Z,67.20
2018-11-28T16:21:23.636Z,67.35
2018-11-28T16:23:52.667Z,67.67
2018-11-28T16:26:20.439Z,67.86
2018-11-28T16:28:48.899Z,68.22
2018-11-28T16:31:17.408Z,68.20
2018-11-28T16:33:45.763Z,68.45
2018-11-28T16:36:14.184Z,68.30
2018-11-28T16:38:42.624Z,68.91
2018-11-28T16:41:11.026Z,68.82
2018-11-28T16:43:39.491Z,69.02
2018-11-28T16:46:07.883Z,69.38
2018-11-28T16:48:36.360Z,69.61
2018-11-28T16:51:04.752Z,70.20
2018-11-28T16:53:33.207Z,70.11
2018-11-28T16:56:01.612Z,70.58
2018-11-28T16:58:30.068Z,70.67
2018-11-28T17:00:58.469Z,70.47
2018-11-28T17:03:26.936Z,71.18
2018-11-28T17:05:55.328Z,71.63
2018-11-28T17:08:23.782Z,71.66
2018-11-28T17:10:52.196Z,72.04
2018-11-28T17:13:20.595Z,71.79
2018-11-28T17:15:49.063Z,71.88
2018-11-28T17:18:17.560Z,72.26
2018-11-28T17:20:46.015Z,72.02
2018-11-28T17:23:14.371Z,72.52
2018-11-28T17:25:42.780Z,72.58
2018-11-28T17:28:11.235Z,72.85
2018-11-28T17:30:39.742Z,73.39
2018-11-28T17:33:08.143Z,73.48
2018-11-28T17:35:36.588Z,73.51
2018-11-28T17:38:05.095Z,73.60
2018-11-28T17:40:33.551Z,73.60
2018-11-28T17:43:01.948Z,73.60
2018-11-28T17:45:30.613Z,74.05
2018-11-28T17:47:59.024Z,74.00
2018-11-28T17:50:27.699Z,73.93
2018-11-28T17:53:00.920Z,74.29
2018-11-28T17:55:30.876Z,73.16
2018-11-28T17:57:59.294Z,73.52
2018-11-28T18:00:27.660Z,73.21
2018-11-28T18:02:56.043Z,73.01
2018-11-28T18:05:24.403Z,73.21
2018-11-28T18:07:52.791Z,72.96
2018-11-28T18:10:21.994Z,73.05
2018-11-28T18:13:02.385Z,73.21
2018-11-28T18:15:30.742Z,72.76
2018-11-28T18:17:59.130Z,72.67
2018-11-28T18:20:27.596Z,72.79
2018-11-28T18:22:55.991Z,72.83
2018-11-28T18:25:25.492Z,72.72
2018-11-28T18:27:53.971Z,72.47
2018-11-28T18:30:22.356Z,72.78
2018-11-28T18:32:50.753Z,72.27
2018-11-28T18:35:19.134Z,72.28
2018-11-28T18:37:47.579Z,72.78
2018-11-28T18:40:15.992Z,72.37
2018-11-28T18:42:44.431Z,72.61
2018-11-28T18:45:15.091Z,72.66
2018-11-28T18:47:43.456Z,72.57
2018-11-28T18:50:12.698Z,72.96
2018-11-28T18:52:41.128Z,72.75
2018-11-28T18:55:16.602Z,74.90
2018-11-28T18:57:41.993Z,76.07
2018-11-28T19:00:19.681Z,74.00
2018-11-28T19:02:48.085Z,73.35
2018-11-28T19:05:16.570Z,73.26
2018-11-28T19:07:45.027Z,73.75
2018-11-28T19:10:15.458Z,74.55
2018-11-28T19:12:43.844Z,72.76
2018-11-28T19:15:18.158Z,72.76
2018-11-28T19:17:47.152Z,73.66
2018-11-28T19:20:19.546Z,74.33
2018-11-28T19:22:48.526Z,74.80
2018-11-28T19:25:17.935Z,73.60
2018-11-28T19:27:46.711Z,73.06
2018-11-28T19:30:20.445Z,72.77
2018-11-28T19:32:48.901Z,72.82
2018-11-28T19:35:17.304Z,73.93
2018-11-28T19:37:45.768Z,74.21
2018-11-28T19:40:21.739Z,73.93
2018-11-28T19:42:50.325Z,74.20
2018-11-28T19:45:18.708Z,73.92
2018-11-28T19:47:47.068Z,74.57
2018-11-28T19:50:20.087Z,73.75
2018-11-28T19:52:48.527Z,74.80
2018-11-28T19:55:16.907Z,73.93
2018-11-28T19:57:45.295Z,73.71
2018-11-28T20:00:15.653Z,73.81
2018-11-28T20:02:44.637Z,74.20
2018-11-28T20:05:15.207Z,74.88
2018-11-28T20:07:48.978Z,74.91
2018-11-28T20:10:18.579Z,76.08
2018-11-28T20:12:47.060Z,76.56
2018-11-28T20:15:17.672Z,76.69
2018-11-28T20:17:46.173Z,76.92
2018-11-28T20:20:15.555Z,77.69
2018-11-28T20:22:43.981Z,78.17
2018-11-28T20:25:17.232Z,78.41
2018-11-28T20:27:47.172Z,78.72
2018-11-28T20:30:17.043Z,78.71
2018-11-28T20:32:45.431Z,79.09
2018-11-28T20:35:13.842Z,79.35
2018-11-28T20:37:42.615Z,79.70
2018-11-28T20:40:16.123Z,80.03
2018-11-28T20:42:46.971Z,79.75
2018-11-28T20:45:15.565Z,79.95
2018-11-28T20:47:44.031Z,79.79
2018-11-28T20:50:22.024Z,79.91
2018-11-28T20:52:55.020Z,80.31
2018-11-28T20:55:21.381Z,80.06
2018-11-28T20:57:49.773Z,80.52
2018-11-28T21:00:21.361Z,80.79
2018-11-28T21:02:49.874Z,80.44
2018-11-28T21:05:18.252Z,80.02
2018-11-28T21:07:46.622Z,80.28
2018-11-28T21:10:21.171Z,80.65
2018-11-28T21:12:49.672Z,80.42
2018-11-28T21:15:18.123Z,80.49
2018-11-28T21:17:46.991Z,80.79
2018-11-28T21:20:16.426Z,80.90
2018-11-28T21:22:47.435Z,80.90
2018-11-28T21:25:15.853Z,81.01
2018-11-28T21:27:44.300Z,80.81
2018-11-28T21:30:14.127Z,80.94
2018-11-28T21:32:42.622Z,81.07
2018-11-28T21:35:12.732Z,81.60
2018-11-28T21:37:41.208Z,81.36
2018-11-28T21:40:10.233Z,80.93
2018-11-28T21:42:38.634Z,81.13
2018-11-28T21:45:09.557Z,81.43
2018-11-28T21:47:37.995Z,81.27
2018-11-28T21:50:08.658Z,81.28
2018-11-28T21:52:37.031Z,81.40
2018-11-28T21:55:06.534Z,81.13
2018-11-28T21:57:34.891Z,80.99
2018-11-28T22:00:03.342Z,80.90
2018-11-28T22:02:31.765Z,80.73
2018-11-28T22:05:00.155Z,81.16
2018-11-28T22:07:28.519Z,80.99
2018-11-28T22:09:56.915Z,80.97
2018-11-28T22:12:25.270Z,81.01
2018-11-28T22:14:53.675Z,80.84
2018-11-28T22:17:22.039Z,81.00
2018-11-28T22:19:50.412Z,80.89
2018-11-28T22:22:18.815Z,80.72
2018-11-28T22:24:47.270Z,80.47
2018-11-28T22:27:15.684Z,80.62
2018-11-28T22:29:44.042Z,80.75
2018-11-28T22:32:12.564Z,80.38
2018-11-28T22:34:40.940Z,80.38
2018-11-28T22:37:09.423Z,80.11
2018-11-28T22:39:37.868Z,80.07
2018-11-28T22:42:06.475Z,80.36
2018-11-28T22:44:34.936Z,80.28
2018-11-28T22:47:03.336Z,80.24
2018-11-28T22:49:31.691Z,80.14
2018-11-28T22:52:00.076Z,79.88
2018-11-28T22:54:28.434Z,79.87
2018-11-28T22:56:56.846Z,79.84
2018-11-28T22:59:25.213Z,79.89
2018-11-28T23:03:00.324Z,79.92
2018-11-28T23:05:32.748Z,80.38
2018-11-28T23:08:02.052Z,80.18
2018-11-28T23:10:30.514Z,80.51
2018-11-28T23:12:58.918Z,80.29
2018-11-28T23:15:27.398Z,80.60
2018-11-28T23:17:55.875Z,79.85
2018-11-28T23:20:24.339Z,80.60
2018-11-28T23:22:52.736Z,80.71
2018-11-28T23:25:21.205Z,81.17
2018-11-28T23:27:49.604Z,80.46
2018-11-28T23:30:19.812Z,80.73
2018-11-28T23:32:49.012Z,80.66
2018-11-28T23:35:17.795Z,80.85
2018-11-28T23:37:47.418Z,80.75
2018-11-28T23:40:23.823Z,80.96
2018-11-28T23:42:52.971Z,80.78
2018-11-28T23:45:21.566Z,80.82
2018-11-28T23:47:50.146Z,81.22
2018-11-28T23:50:22.316Z,81.42
2018-11-28T23:52:51.551Z,81.02
2018-11-28T23:55:20.803Z,81.00
2018-11-28T23:57:49.295Z,81.08
